Time;durP1;ratioP1;P1;durP2;ratioP2;P2;SDS_P1;SDS_P2;PMS_P1;PMS_P2;Temp;Humidity;BMP_temperature;BMP_pressure;BME280_temperature;BME280_humidity;BME280_pressure;Samples;Min_cycle;Max_cycle;Signal;HPM_P1;HPM_P2
2023/09/19 00:00:01;;;;;;;370.52;265.58;;;;;;;20.16;64.69;99981.28;344918;28;1335;-72
2023/09/19 00:00:13;;;;;;;371.03;265.73;;;;;;;20.17;64.57;99987.44;346047;28;924;-74
2023/09/19 00:00:26;;;;;;;372.23;272.10;;;;;;;20.15;64.57;99989.34;347206;28;1187;-74
2023/09/19 00:00:37;;;;;;;370.88;271.13;;;;;;;20.12;64.70;99982.47;344569;28;901;-73
2023/09/19 00:00:48;;;;;;;368.17;267.93;;;;;;;20.12;64.96;99981.63;347242;28;1255;-73
2023/09/19 00:00:59;;;;;;;367.55;266.27;;;;;;;20.12;64.88;99979.81;344479;28;1778;-73
2023/09/19 00:01:11;;;;;;;366.57;266.10;;;;;;;20.10;64.65;99984.38;342909;28;902;-73
2023/09/19 00:01:22;;;;;;;368.95;268.30;;;;;;;20.10;64.81;99976.41;345010;28;1336;-73
2023/09/19 00:01:32;;;;;;;370.83;271.60;;;;;;;20.07;64.69;99981.94;347517;28;841;-73
2023/09/19 00:01:45;;;;;;;369.13;266.73;;;;;;;20.03;65.04;99980.47;350076;28;1411;-73
2023/09/19 00:01:56;;;;;;;368.40;263.90;;;;;;;20.01;64.97;99982.41;348666;28;950;-73
2023/09/19 00:02:08;;;;;;;368.33;263.45;;;;;;;20.00;65.14;99983.38;348748;28;939;-73
2023/09/19 00:02:19;;;;;;;368.92;266.85;;;;;;;19.98;64.95;99979.97;346222;28;865;-73
2023/09/19 00:02:29;;;;;;;368.67;266.60;;;;;;;19.98;65.14;99985.28;348864;28;876;-73
2023/09/19 00:02:40;;;;;;;370.20;264.33;;;;;;;19.97;65.36;99980.94;347579;28;1404;-73
2023/09/19 00:02:54;;;;;;;370.65;262.27;;;;;;;19.97;65.16;99985.41;345881;28;1098;-73
2023/09/19 00:03:05;;;;;;;370.48;265.15;;;;;;;19.95;64.96;99982.84;348000;28;1364;-73
2023/09/19 00:03:15;;;;;;;369.27;264.70;;;;;;;19.93;65.16;99979.47;347267;28;1498;-74
2023/09/19 00:03:25;;;;;;;368.63;261.47;;;;;;;19.93;65.24;99979.47;348529;28;1224;-74
2023/09/19 00:03:42;;;;;;;368.30;260.47;;;;;;;19.92;65.48;99983.09;347264;28;1312;-73
2023/09/19 00:03:53;;;;;;;366.40;259.30;;;;;;;19.93;65.18;99984.78;346519;28;1304;-73
2023/09/19 00:04:09;;;;;;;366.35;263.00;;;;;;;19.90;65.27;99980.56;347438;28;868;-73
2023/09/19 00:04:23;;;;;;;369.10;266.40;;;;;;;19.90;65.68;99991.19;348600;28;1494;-73
2023/09/19 00:04:33;;;;;;;366.25;258.55;;;;;;;19.90;65.33;99980.56;344529;28;1533;-73
2023/09/19 00:04:44;;;;;;;364.63;256.93;;;;;;;19.91;65.71;99978.75;344280;28;1791;-74
2023/09/19 00:04:54;;;;;;;368.13;262.30;;;;;;;19.90;65.42;99977.06;342214;28;1450;-74
2023/09/19 00:05:05;;;;;;;373.30;268.65;;;;;;;19.90;65.80;99979.72;343731;28;1668;-74
2023/09/19 00:05:16;;;;;;;373.03;267.63;;;;;;;19.90;65.56;99980.56;346213;28;890;-73
2023/09/19 00:05:27;;;;;;;369.40;261.63;;;;;;;19.90;65.44;99985.88;342027;28;1099;-73
2023/09/19 00:05:38;;;;;;;366.10;260.88;;;;;;;19.91;65.30;99981.41;339157;29;1494;-73
2023/09/19 00:05:50;;;;;;;368.50;264.80;;;;;;;19.92;65.19;99977.78;338245;29;1025;-73
2023/09/19 00:06:01;;;;;;;369.35;263.23;;;;;;;19.93;65.42;99985.63;340651;29;945;-73
2023/09/19 00:06:15;;;;;;;367.58;259.05;;;;;;;19.94;65.43;99978.50;337562;29;2000;-73
2023/09/19 00:06:31;;;;;;;367.17;257.95;;;;;;;19.95;65.35;99988.16;336247;29;5614;-73
2023/09/19 00:06:42;;;;;;;367.63;262.05;;;;;;;19.96;65.19;99979.25;339156;29;1424;-73
2023/09/19 00:06:54;;;;;;;364.83;259.15;;;;;;;19.97;65.39;99980.09;340450;28;1513;-73
2023/09/19 00:07:04;;;;;;;364.23;259.42;;;;;;;19.97;65.25;99974.78;341324;28;1398;-73
2023/09/19 00:07:16;;;;;;;366.27;259.17;;;;;;;19.97;65.42;99978.28;339260;28;1304;-73
2023/09/19 00:07:26;;;;;;;368.45;262.50;;;;;;;19.98;65.45;99979.97;340202;29;1440;-73
2023/09/19 00:07:36;;;;;;;368.63;263.48;;;;;;;19.99;65.20;99979.00;343687;28;1539;-73
2023/09/19 00:07:47;;;;;;;366.90;261.73;;;;;;;20.00;65.00;99980.72;342906;28;1481;-73
2023/09/19 00:08:01;;;;;;;364.05;256.52;;;;;;;20.00;65.46;99975.41;339447;29;833;-73
2023/09/19 00:08:13;;;;;;;364.00;253.20;;;;;;;20.01;64.98;99977.09;341470;28;1310;-73
2023/09/19 00:08:23;;;;;;;364.13;252.13;;;;;;;20.03;64.99;99979.63;341999;28;861;-73
2023/09/19 00:08:34;;;;;;;366.30;258.57;;;;;;;20.03;65.22;99977.81;340537;29;1218;-73
2023/09/19 00:08:44;;;;;;;368.58;265.40;;;;;;;20.05;65.27;99977.72;338527;29;2591;-73
2023/09/19 00:08:55;;;;;;;371.43;270.13;;;;;;;20.03;65.02;99980.47;331668;29;4907;-73
2023/09/19 00:09:10;;;;;;;371.33;265.15;;;;;;;20.05;65.20;99983.88;333011;29;3215;-73
2023/09/19 00:09:20;;;;;;;372.55;265.15;;;;;;;20.06;64.75;99980.25;333610;29;4767;-73
2023/09/19 00:09:36;;;;;;;370.60;267.47;;;;;;;20.07;64.65;99981.94;335122;29;1707;-73
2023/09/19 00:09:47;;;;;;;369.15;269.52;;;;;;;20.08;64.45;99973.03;332734;29;1073;-73
2023/09/19 00:09:57;;;;;;;370.60;271.95;;;;;;;20.08;64.79;99982.81;326609;30;1228;-73
2023/09/19 00:10:09;;;;;;;372.90;273.80;;;;;;;20.08;64.45;99980.16;329218;29;1486;-73
2023/09/19 00:10:26;;;;;;;375.40;271.65;;;;;;;20.07;64.39;99976.63;332807;29;913;-73
2023/09/19 00:10:37;;;;;;;377.70;273.10;;;;;;;20.07;64.56;99979.28;329531;29;1364;-73
2023/09/19 00:10:48;;;;;;;379.48;274.23;;;;;;;20.07;64.52;99984.59;328988;29;1752;-73
2023/09/19 00:11:05;;;;;;;381.47;276.23;;;;;;;20.07;64.76;99978.44;327779;30;1331;-73
2023/09/19 00:11:16;;;;;;;380.83;278.27;;;;;;;20.08;64.55;99980.16;323081;30;1806;-73
2023/09/19 00:11:26;;;;;;;378.93;272.13;;;;;;;20.08;64.07;99978.34;321671;30;2452;-74
2023/09/19 00:11:38;;;;;;;378.98;273.42;;;;;;;20.07;64.27;99981.94;322716;30;2769;-74
2023/09/19 00:11:49;;;;;;;378.40;272.25;;;;;;;20.08;64.30;99974.84;323012;30;2599;-73
2023/09/19 00:12:00;;;;;;;381.33;274.13;;;;;;;20.07;64.51;99978.44;323011;30;1060;-73
2023/09/19 00:12:13;;;;;;;381.83;269.53;;;;;;;20.06;64.42;99977.59;322897;30;1905;-73
2023/09/19 00:12:23;;;;;;;377.42;264.35;;;;;;;20.08;64.16;99981.00;323106;30;5403;-73
2023/09/19 00:12:34;;;;;;;374.80;262.38;;;;;;;20.07;64.21;99976.63;323020;30;1276;-73
2023/09/19 00:12:44;;;;;;;374.77;260.33;;;;;;;20.08;64.28;99975.69;324309;30;955;-73
2023/09/19 00:12:55;;;;;;;378.45;262.45;;;;;;;20.09;64.55;99979.19;322289;30;2312;-73
2023/09/19 00:13:06;;;;;;;379.43;264.90;;;;;;;20.09;64.33;99979.19;323146;30;2502;-73
2023/09/19 00:13:18;;;;;;;380.17;268.67;;;;;;;20.09;64.68;99980.03;326823;30;852;-72
2023/09/19 00:13:30;;;;;;;378.27;269.23;;;;;;;20.08;64.41;99981.00;318438;31;959;-72
2023/09/19 00:13:41;;;;;;;379.52;271.33;;;;;;;20.07;64.28;99981.09;312451;31;2645;-73
2023/09/19 00:13:51;;;;;;;376.90;267.30;;;;;;;20.06;64.40;99980.25;312019;31;3184;-73
2023/09/19 00:14:02;;;;;;;379.37;270.40;;;;;;;20.05;64.53;99975.91;314924;31;1398;-73
2023/09/19 00:14:13;;;;;;;375.55;264.90;;;;;;;20.06;64.34;99980.25;311611;31;1537;-73
2023/09/19 00:14:25;;;;;;;369.88;262.42;;;;;;;20.02;64.77;99973.47;308582;31;2486;-73
2023/09/19 00:14:35;;;;;;;370.90;261.90;;;;;;;20.04;64.47;99981.34;305962;32;2141;-73
2023/09/19 00:14:46;;;;;;;372.53;266.23;;;;;;;20.02;64.70;99973.47;306202;32;1264;-73
2023/09/19 00:14:56;;;;;;;373.42;267.55;;;;;;;20.00;64.57;99975.41;305729;32;2235;-73
2023/09/19 00:15:07;;;;;;;370.87;264.30;;;;;;;20.00;64.96;99978.06;304132;32;2779;-73
2023/09/19 00:15:18;;;;;;;371.63;265.67;;;;;;;20.00;64.39;99979.88;301519;32;3707;-72
2023/09/19 00:15:29;;;;;;;374.17;266.70;;;;;;;20.00;64.25;99979.88;302567;32;1157;-72
2023/09/19 00:15:40;;;;;;;372.15;264.35;;;;;;;19.99;64.50;99978.16;302755;32;5459;-72
2023/09/19 00:15:51;;;;;;;372.38;262.80;;;;;;;19.99;64.50;99972.84;300700;32;3788;-72
2023/09/19 00:16:01;;;;;;;374.83;268.30;;;;;;;19.99;64.50;99979.00;299893;32;1234;-72
2023/09/19 00:16:12;;;;;;;376.80;275.23;;;;;;;20.00;64.61;99980.72;294898;33;4403;-73
2023/09/19 00:16:22;;;;;;;375.43;276.27;;;;;;;19.99;64.57;99972.84;295710;33;4161;-73
2023/09/19 00:16:33;;;;;;;372.60;270.38;;;;;;;20.00;64.54;99975.41;297095;33;3560;-73
2023/09/19 00:16:44;;;;;;;369.27;261.10;;;;;;;19.99;64.61;99978.16;294818;33;1247;-73
2023/09/19 00:16:54;;;;;;;371.08;264.60;;;;;;;19.98;64.48;99979.97;292548;33;3045;-73
2023/09/19 00:17:08;;;;;;;371.58;265.90;;;;;;;19.93;64.47;99980.31;291899;33;3389;-73
2023/09/19 00:17:18;;;;;;;370.45;266.25;;;;;;;19.93;64.38;99979.47;291726;33;3635;-73
2023/09/19 00:17:31;;;;;;;368.98;263.88;;;;;;;19.91;64.61;99976.94;288976;34;1161;-73
2023/09/19 00:17:43;;;;;;;366.48;259.88;;;;;;;19.92;64.47;99983.09;288823;33;4813;-73
2023/09/19 00:17:53;;;;;;;365.42;256.90;;;;;;;19.91;64.16;99976.94;286305;34;7874;-73
2023/09/19 00:18:08;;;;;;;366.73;258.52;;;;;;;19.91;64.26;99976.09;284666;34;7277;-72
2023/09/19 00:18:21;;;;;;;367.42;259.83;;;;;;;19.89;64.39;99975.38;285690;34;5974;-72
2023/09/19 00:18:33;;;;;;;369.20;258.83;;;;;;;19.87;64.42;99985.25;279016;35;1557;-73
2023/09/19 00:18:43;;;;;;;369.20;259.98;;;;;;;19.88;64.14;99976.31;280763;35;1001;-73
2023/09/19 00:18:55;;;;;;;370.30;261.70;;;;;;;19.87;64.52;99977.28;280830;34;5098;-73
2023/09/19 00:19:08;;;;;;;368.88;265.73;;;;;;;19.86;64.60;99983.56;281722;34;4514;-73
2023/09/19 00:19:19;;;;;;;371.80;271.80;;;;;;;19.86;64.33;99972.94;283123;34;5328;-72
2023/09/19 00:19:29;;;;;;;374.40;273.42;;;;;;;19.86;64.63;99973.78;280970;35;1597;-72
2023/09/19 00:19:42;;;;;;;374.77;271.60;;;;;;;19.87;64.16;99970.16;276988;35;6613;-72
2023/09/19 00:19:53;;;;;;;372.08;272.20;;;;;;;19.89;64.61;99983.34;276290;35;7268;-72
2023/09/19 00:20:12;;;;;;;370.13;266.40;;;;;;;19.90;64.28;99985.03;276960;35;11068;-72
2023/09/19 00:20:23;;;;;;;370.63;270.55;;;;;;;19.90;64.05;99974.41;279024;35;8122;-72
2023/09/19 00:22:44;;;;;;;359.76;243.99;;;;;;;19.92;64.02;99972.47;2501419;27;20981;-73
2023/09/19 00:22:54;;;;;;;363.37;250.43;;;;;;;19.92;64.22;99968.00;353329;27;1547;-73
2023/09/19 00:23:05;;;;;;;368.15;255.48;;;;;;;19.94;63.96;99974.03;350133;28;1492;-72
2023/09/19 00:23:16;;;;;;;369.03;259.97;;;;;;;19.93;64.24;99969.69;348763;28;895;-72
2023/09/19 00:23:28;;;;;;;370.15;262.08;;;;;;;19.93;64.31;99971.50;345925;28;1325;-72
2023/09/19 00:23:41;;;;;;;366.90;261.45;;;;;;;19.94;64.15;99970.53;346112;28;1350;-72
2023/09/19 00:23:51;;;;;;;368.52;266.67;;;;;;;19.95;63.75;99969.56;346045;28;876;-72
2023/09/19 00:24:02;;;;;;;367.88;267.58;;;;;;;19.93;64.15;99964.38;345923;28;876;-72
2023/09/19 00:24:13;;;;;;;367.88;264.45;;;;;;;19.94;64.24;99970.53;347159;28;1351;-72
2023/09/19 00:24:24;;;;;;;366.58;259.40;;;;;;;19.94;63.90;99971.38;348212;28;915;-72
2023/09/19 00:24:34;;;;;;;366.67;258.37;;;;;;;19.95;63.95;99972.22;347725;28;1170;-72
2023/09/19 00:24:45;;;;;;;365.42;257.55;;;;;;;19.95;64.31;99966.91;349555;28;1142;-72
2023/09/19 00:24:56;;;;;;;364.58;256.35;;;;;;;19.95;63.99;99966.91;348417;28;2189;-72
2023/09/19 00:25:06;;;;;;;363.90;254.83;;;;;;;19.95;64.58;99964.25;347422;28;1078;-72
2023/09/19 00:25:17;;;;;;;364.88;257.73;;;;;;;19.90;64.32;99963.78;348814;28;1195;-73
2023/09/19 00:25:27;;;;;;;366.90;260.33;;;;;;;19.89;64.55;99972.72;347359;28;1225;-73
2023/09/19 00:25:38;;;;;;;369.58;268.42;;;;;;;19.88;64.47;99976.31;345957;28;1495;-73
2023/09/19 00:25:50;;;;;;;371.48;271.38;;;;;;;19.85;64.78;99965.91;346027;28;1453;-73
2023/09/19 00:26:00;;;;;;;371.83;269.17;;;;;;;19.81;64.58;99975.06;345986;28;924;-73
2023/09/19 00:26:11;;;;;;;369.57;261.93;;;;;;;19.77;64.98;99962.97;349971;28;1410;-73
2023/09/19 00:26:21;;;;;;;369.60;258.90;;;;;;;19.74;64.55;99973.81;348424;28;1241;-72
2023/09/19 00:26:32;;;;;;;370.57;257.50;;;;;;;19.72;64.79;99965.97;347226;28;1704;-72
2023/09/19 00:26:43;;;;;;;371.75;261.10;;;;;;;19.72;65.01;99975.75;348651;28;1054;-72
2023/09/19 00:26:58;;;;;;;369.23;260.88;;;;;;;19.71;65.25;99971.38;348558;28;802;-72
2023/09/19 00:27:09;;;;;;;368.73;265.42;;;;;;;19.72;65.06;99971.28;345999;28;2397;-73
2023/09/19 00:27:19;;;;;;;367.98;263.38;;;;;;;19.74;65.25;99968.50;343935;28;4761;-73
2023/09/19 00:27:30;;;;;;;369.30;264.03;;;;;;;19.75;64.92;99975.53;344037;28;3038;-73
2023/09/19 00:27:42;;;;;;;371.08;260.90;;;;;;;19.75;64.80;99970.22;343370;28;1073;-73
2023/09/19 00:27:52;;;;;;;372.23;257.45;;;;;;;19.75;65.08;99976.38;342281;28;3167;-73
2023/09/19 00:28:05;;;;;;;371.83;258.30;;;;;;;19.73;64.81;99972.97;345789;28;1479;-73
2023/09/19 00:28:16;;;;;;;366.58;260.15;;;;;;;19.74;64.81;99973.81;344600;28;1902;-73
2023/09/19 00:28:27;;;;;;;366.58;262.63;;;;;;;19.76;64.68;99977.22;345750;28;1100;-73
2023/09/19 00:28:37;;;;;;;367.13;261.83;;;;;;;19.76;64.80;99971.91;343749;28;1017;-73
2023/09/19 00:28:48;;;;;;;367.05;260.50;;;;;;;19.77;65.23;99969.13;344535;28;997;-73
2023/09/19 00:29:08;;;;;;;367.13;255.17;;;;;;;19.77;64.98;99973.59;344723;28;1243;-73
2023/09/19 00:29:19;;;;;;;365.70;252.38;;;;;;;19.79;64.83;99977.84;336789;28;5249;-73
2023/09/19 00:29:31;;;;;;;364.73;254.40;;;;;;;19.78;64.84;99977.94;342010;28;881;-73
2023/09/19 00:29:41;;;;;;;365.02;254.07;;;;;;;19.75;64.68;99971.06;342891;28;1340;-74
2023/09/19 00:29:52;;;;;;;366.57;258.77;;;;;;;19.74;64.65;99971.16;343258;28;857;-73
2023/09/19 00:30:04;;;;;;;366.48;257.80;;;;;;;19.72;64.92;99971.28;343731;28;1469;-73
2023/09/19 00:30:19;;;;;;;364.88;256.52;;;;;;;19.72;64.76;99970.44;344636;28;923;-73
2023/09/19 00:30:30;;;;;;;363.83;256.23;;;;;;;19.73;65.28;99977.44;340568;29;5181;-73
2023/09/19 00:30:42;;;;;;;366.20;256.67;;;;;;;19.71;65.08;99974.03;338950;29;1363;-73
2023/09/19 00:30:55;;;;;;;367.00;255.88;;;;;;;19.69;64.78;99968.00;338299;29;1348;-73
2023/09/19 00:31:08;;;;;;;365.73;252.23;;;;;;;19.69;64.72;99973.31;336952;29;1452;-73
2023/09/19 00:31:19;;;;;;;368.23;255.88;;;;;;;19.70;64.84;99975.00;336554;29;1398;-73
2023/09/19 00:31:29;;;;;;;369.13;259.53;;;;;;;19.71;64.68;99969.59;336763;29;834;-73
2023/09/19 00:31:40;;;;;;;371.98;265.10;;;;;;;19.72;64.73;99976.59;337119;29;1972;-73
2023/09/19 00:31:50;;;;;;;370.35;262.02;;;;;;;19.74;64.81;99973.81;332809;29;1524;-73
2023/09/19 00:32:03;;;;;;;371.40;264.47;;;;;;;19.76;64.31;99974.56;332825;29;799;-73
2023/09/19 00:32:13;;;;;;;371.98;264.27;;;;;;;19.76;64.61;99972.75;329087;30;4896;-72
2023/09/19 00:32:24;;;;;;;371.53;263.93;;;;;;;19.76;64.42;99980.72;331888;29;1423;-72
2023/09/19 00:32:34;;;;;;;369.25;260.13;;;;;;;19.78;64.62;99975.28;330492;29;1630;-72
2023/09/19 00:32:47;;;;;;;367.83;261.57;;;;;;;19.77;64.34;99974.44;331574;29;1206;-72
2023/09/19 00:32:57;;;;;;;366.42;256.55;;;;;;;19.77;64.35;99976.25;331023;29;1988;-72
2023/09/19 00:33:07;;;;;;;364.37;249.13;;;;;;;19.78;64.27;99975.28;331267;29;1781;-72
2023/09/19 00:33:19;;;;;;;363.52;249.55;;;;;;;19.78;64.49;99972.63;330050;29;1698;-72
2023/09/19 00:33:29;;;;;;;363.42;252.82;;;;;;;19.77;64.51;99971.78;330427;29;1906;-73
2023/09/19 00:33:40;;;;;;;366.65;259.08;;;;;;;19.77;64.29;99973.59;327883;29;2323;-73
2023/09/19 00:33:51;;;;;;;367.57;256.80;;;;;;;19.76;64.70;99971.91;327209;30;1599;-73
2023/09/19 00:34:09;;;;;;;369.92;257.15;;;;;;;19.77;64.36;99973.59;328703;30;1424;-73
2023/09/19 00:34:20;;;;;;;369.38;257.10;;;;;;;19.76;64.61;99971.91;327987;30;1817;-73
2023/09/19 00:34:31;;;;;;;368.40;255.10;;;;;;;19.78;64.49;99978.81;327956;30;857;-73
2023/09/19 00:34:42;;;;;;;369.27;256.23;;;;;;;19.79;64.46;99971.69;330390;29;1961;-73
2023/09/19 00:34:52;;;;;;;365.98;254.15;;;;;;;19.79;64.43;99972.53;328013;29;2242;-73
2023/09/19 00:35:03;;;;;;;364.43;252.80;;;;;;;19.80;64.40;99973.38;327571;30;2390;-73
2023/09/19 00:35:15;;;;;;;365.42;258.02;;;;;;;19.81;64.08;99978.56;324240;30;1082;-73
2023/09/19 00:35:25;;;;;;;365.67;257.92;;;;;;;19.82;64.49;99966.16;319109;30;2614;-73
2023/09/19 00:35:36;;;;;;;365.17;256.95;;;;;;;19.81;64.41;99965.31;319268;30;2423;-73
2023/09/19 00:35:51;;;;;;;367.10;259.08;;;;;;;19.84;63.93;99969.53;322944;30;1531;-74
2023/09/19 00:36:04;;;;;;;367.98;258.98;;;;;;;19.85;64.38;99971.22;319538;30;1536;-73
2023/09/19 00:36:14;;;;;;;369.30;259.70;;;;;;;19.85;64.21;99977.41;319393;30;885;-73
2023/09/19 00:36:25;;;;;;;368.60;258.40;;;;;;;19.84;64.20;99966.88;318115;30;2378;-73
2023/09/19 00:36:36;;;;;;;366.53;255.43;;;;;;;19.85;64.26;99971.22;318207;30;4853;-73
2023/09/19 00:36:46;;;;;;;366.65;257.63;;;;;;;19.84;64.40;99969.53;315266;31;2930;-73
2023/09/19 00:36:56;;;;;;;371.48;262.63;;;;;;;19.82;64.77;99966.16;317414;31;3196;-73
2023/09/19 00:37:07;;;;;;;373.03;265.93;;;;;;;19.83;64.61;99970.50;315668;31;3128;-73
2023/09/19 00:37:18;;;;;;;372.20;264.48;;;;;;;19.81;64.81;99964.44;315863;31;1259;-73
2023/09/19 00:37:28;;;;;;;369.63;265.13;;;;;;;19.81;64.78;99967.94;311721;31;821;-73
2023/09/19 00:37:39;;;;;;;367.92;262.42;;;;;;;19.79;65.05;99971.69;313255;31;3381;-73
2023/09/19 00:37:50;;;;;;;366.88;257.42;;;;;;;19.79;64.93;99972.53;315981;30;3269;-73
2023/09/19 00:38:01;;;;;;;365.63;256.73;;;;;;;19.80;65.01;99968.06;317194;31;1040;-73
2023/09/19 00:38:16;;;;;;;368.60;263.15;;;;;;;19.80;65.16;99970.72;319877;30;3375;-73
2023/09/19 00:38:27;;;;;;;368.60;256.05;;;;;;;19.79;65.14;99972.53;312476;31;2408;-73
2023/09/19 00:38:37;;;;;;;369.05;255.23;;;;;;;19.81;65.15;99967.94;312925;31;2500;-73
2023/09/19 00:38:48;;;;;;;368.57;255.57;;;;;;;19.80;65.19;99974.22;311698;31;871;-73
2023/09/19 00:38:58;;;;;;;368.17;256.95;;;;;;;19.82;65.39;99968.81;307159;32;1316;-73
2023/09/19 00:39:08;;;;;;;368.83;253.67;;;;;;;19.82;65.27;99967.00;305581;32;3962;-73
2023/09/19 00:39:20;;;;;;;369.33;254.35;;;;;;;19.81;65.38;99975.91;305758;31;4796;-73
2023/09/19 00:39:31;;;;;;;369.65;257.17;;;;;;;19.82;65.34;99971.47;308275;32;1498;-73
2023/09/19 00:39:41;;;;;;;367.45;255.50;;;;;;;19.81;65.59;99965.31;304952;32;4340;-73
2023/09/19 00:39:52;;;;;;;370.50;261.00;;;;;;;19.83;65.52;99978.47;304792;32;4315;-73
2023/09/19 00:40:05;;;;;;;371.20;261.07;;;;;;;19.81;65.43;99967.94;304437;32;1473;-73
2023/09/19 00:40:16;;;;;;;372.48;265.05;;;;;;;19.82;65.06;99971.47;304067;32;1742;-73
2023/09/19 00:40:27;;;;;;;373.33;267.38;;;;;;;19.82;65.38;99963.50;307559;32;4353;-73
2023/09/19 00:40:37;;;;;;;373.63;267.73;;;;;;;19.82;64.89;99966.16;305463;32;3241;-73
2023/09/19 00:40:48;;;;;;;372.97;268.97;;;;;;;19.81;65.22;99964.44;305095;32;1390;-73
2023/09/19 00:40:59;;;;;;;371.05;261.20;;;;;;;19.81;65.17;99977.72;303880;32;1634;-73
2023/09/19 00:41:10;;;;;;;370.75;255.90;;;;;;;19.80;65.21;99973.38;300896;32;4361;-74
2023/09/19 00:41:21;;;;;;;369.20;252.70;;;;;;;19.78;65.27;99969.97;299738;32;5487;-73
2023/09/19 00:41:32;;;;;;;366.85;255.32;;;;;;;19.79;65.24;99971.69;299816;32;1639;-73
2023/09/19 00:41:44;;;;;;;367.77;259.38;;;;;;;19.78;65.19;99969.97;296030;32;7640;-72
2023/09/19 00:41:55;;;;;;;367.38;256.90;;;;;;;19.79;64.81;99972.53;297883;32;5911;-72
2023/09/19 00:42:05;;;;;;;368.57;257.77;;;;;;;19.80;64.87;99978.69;298948;32;6146;-72
2023/09/19 00:42:21;;;;;;;368.80;257.95;;;;;;;19.80;64.74;99981.34;297887;33;1304;-72
2023/09/19 00:42:33;;;;;;;367.80;259.63;;;;;;;19.80;65.05;99968.06;295920;33;949;-72
2023/09/19 00:42:44;;;;;;;366.88;256.85;;;;;;;19.80;65.00;99973.38;290953;33;1382;-72
2023/09/19 00:42:59;;;;;;;368.02;258.55;;;;;;;19.78;64.64;99962.88;290134;33;4672;-73
2023/09/19 00:43:09;;;;;;;367.20;257.40;;;;;;;19.79;64.63;99977.00;287827;34;5036;-72
2023/09/19 00:43:20;;;;;;;369.20;261.50;;;;;;;19.79;64.56;99966.38;285220;33;6492;-72
2023/09/19 00:43:34;;;;;;;369.95;264.38;;;;;;;19.78;64.56;99972.63;287229;34;894;-72
2023/09/19 00:43:44;;;;;;;367.45;259.90;;;;;;;19.76;64.40;99966.59;283524;34;975;-72
2023/09/19 00:43:55;;;;;;;364.50;258.70;;;;;;;19.76;64.85;99971.91;283244;34;9375;-72
2023/09/19 00:44:05;;;;;;;367.13;262.00;;;;;;;19.75;64.59;99960.44;282079;34;8035;-72
2023/09/19 00:44:17;;;;;;;367.00;260.63;;;;;;;19.75;64.73;99967.56;286202;34;1232;-72
2023/09/19 00:44:27;;;;;;;366.65;260.15;;;;;;;19.75;64.82;99971.06;280476;34;9257;-72
2023/09/19 00:44:40;;;;;;;369.48;262.63;;;;;;;19.75;64.93;99975.53;279354;35;8701;-72
2023/09/19 00:44:51;;;;;;;370.38;266.27;;;;;;;19.74;64.88;99971.16;278806;35;8547;-72
2023/09/19 00:45:03;;;;;;;369.92;266.52;;;;;;;19.72;64.97;99970.44;281548;35;1187;-72
2023/09/19 00:45:14;;;;;;;369.58;265.75;;;;;;;19.71;65.23;99974.91;278484;35;2023;-72
2023/09/19 00:45:24;;;;;;;368.60;261.55;;;;;;;19.72;65.29;99970.44;276542;35;6881;-72
2023/09/19 00:47:16;;;;;;;361.53;245.61;;;;;;;19.71;65.66;99963.41;2496990;27;20494;-72
2023/09/19 00:47:28;;;;;;;361.25;247.68;;;;;;;19.70;65.78;99969.69;350548;28;1237;-72
2023/09/19 00:47:59;;;;;;;363.70;254.02;;;;;;;19.70;65.81;99969.69;348699;28;1536;-72
2023/09/19 00:48:09;;;;;;;365.20;252.20;;;;;;;19.69;65.95;99965.34;345540;28;1217;-72
2023/09/19 00:48:21;;;;;;;367.23;257.00;;;;;;;19.67;66.23;99967.25;347298;28;1526;-72
2023/09/19 00:48:31;;;;;;;367.23;256.13;;;;;;;19.66;66.29;99970.88;346030;28;1022;-72
2023/09/19 00:48:43;;;;;;;370.65;260.88;;;;;;;19.65;66.19;99961.22;346464;28;1429;-72
2023/09/19 00:48:54;;;;;;;369.67;257.30;;;;;;;19.64;66.39;99967.47;345801;28;1533;-73
2023/09/19 00:49:05;;;;;;;366.80;250.63;;;;;;;19.63;66.86;99965.78;343337;28;1693;-72
2023/09/19 00:49:15;;;;;;;364.10;246.48;;;;;;;19.62;66.82;99966.75;344470;28;1217;-72
2023/09/19 00:49:26;;;;;;;363.30;245.23;;;;;;;19.60;67.07;99967.69;347342;28;1224;-72
2023/09/19 00:49:37;;;;;;;362.90;247.57;;;;;;;19.58;67.16;99968.78;348873;28;1234;-72
2023/09/19 00:49:52;;;;;;;364.38;251.65;;;;;;;19.60;67.43;99967.69;348794;28;1094;-72
2023/09/19 00:50:07;;;;;;;365.83;256.73;;;;;;;19.60;67.09;99962.38;346044;28;1227;-73
2023/09/19 00:50:19;;;;;;;369.33;264.75;;;;;;;19.61;67.47;99968.56;347360;28;874;-73
2023/09/19 00:50:32;;;;;;;368.80;264.50;;;;;;;19.60;67.42;99967.69;348699;28;1562;-73
2023/09/19 00:50:43;;;;;;;365.67;258.60;;;;;;;19.62;67.61;99964.09;345573;28;1463;-72
2023/09/19 00:50:53;;;;;;;362.65;250.30;;;;;;;19.62;67.44;99969.41;349205;28;1315;-72
2023/09/19 00:51:04;;;;;;;363.40;250.27;;;;;;;19.60;67.46;99965.03;351842;28;1108;-72
2023/09/19 00:51:18;;;;;;;364.30;253.13;;;;;;;19.61;67.51;99963.25;351525;28;1197;-72
2023/09/19 00:51:29;;;;;;;366.60;259.77;;;;;;;19.62;67.32;99964.09;348692;28;1416;-72
2023/09/19 00:51:45;;;;;;;366.60;261.20;;;;;;;19.62;67.36;99964.09;348427;28;982;-72
2023/09/19 00:51:56;;;;;;;366.05;257.42;;;;;;;19.60;67.62;99966.84;347234;28;1398;-72
2023/09/19 00:52:06;;;;;;;365.67;251.75;;;;;;;19.62;67.56;99964.09;347322;28;1735;-73
2023/09/19 00:52:20;;;;;;;367.10;251.85;;;;;;;19.59;67.71;99966.00;346067;28;1360;-73
2023/09/19 00:52:31;;;;;;;367.00;249.82;;;;;;;19.58;67.62;99964.31;344274;28;5286;-72
2023/09/19 00:52:42;;;;;;;366.77;255.32;;;;;;;19.57;67.54;99962.59;340510;29;1340;-72
2023/09/19 00:52:58;;;;;;;367.13;256.87;;;;;;;19.56;67.75;99963.56;340455;29;899;-72
2023/09/19 00:53:09;;;;;;;368.05;260.15;;;;;;;19.57;67.51;99965.25;341336;28;1217;-72
2023/09/19 00:53:22;;;;;;;368.00;260.80;;;;;;;19.57;67.39;99967.06;341525;28;1270;-72
2023/09/19 00:53:34;;;;;;;369.33;263.30;;;;;;;19.56;67.20;99976.00;343273;28;1252;-72
2023/09/19 00:53:46;;;;;;;368.25;258.55;;;;;;;19.53;67.51;99965.59;342023;28;905;-72
2023/09/19 00:53:58;;;;;;;367.05;254.07;;;;;;;19.50;67.71;99966.63;337900;29;1507;-72
2023/09/19 00:54:08;;;;;;;367.67;253.63;;;;;;;19.47;67.44;99966.88;339019;29;4899;-72
2023/09/19 00:54:19;;;;;;;366.50;251.03;;;;;;;19.45;67.76;99960.84;339299;29;1084;-72
2023/09/19 00:54:29;;;;;;;364.47;249.90;;;;;;;19.46;67.65;99967.00;340615;29;1206;-72
2023/09/19 00:54:39;;;;;;;365.02;251.00;;;;;;;19.46;67.96;99964.34;340470;28;948;-72
2023/09/19 00:54:50;;;;;;;366.73;257.57;;;;;;;19.46;67.89;99962.53;340492;29;959;-72
2023/09/19 00:55:01;;;;;;;367.60;257.27;;;;;;;19.47;67.65;99966.88;337878;29;1246;-72
2023/09/19 00:55:13;;;;;;;367.15;254.07;;;;;;;19.47;67.87;99969.53;335348;29;1295;-72
2023/09/19 00:55:24;;;;;;;364.45;247.85;;;;;;;19.47;67.58;99966.88;335861;29;2753;-72
2023/09/19 00:55:34;;;;;;;369.27;250.88;;;;;;;19.49;67.56;99975.59;336494;29;4145;-72
2023/09/19 00:55:45;;;;;;;370.93;250.17;;;;;;;19.48;67.64;99963.28;337407;29;1625;-72
2023/09/19 00:55:56;;;;;;;377.08;257.13;;;;;;;19.48;67.25;99965.94;332638;29;1494;-72
2023/09/19 00:56:06;;;;;;;371.58;252.25;;;;;;;19.49;67.85;99975.59;333203;29;3058;-73
2023/09/19 00:56:18;;;;;;;371.30;257.53;;;;;;;19.47;67.61;99966.03;332182;29;1630;-73
2023/09/19 00:56:28;;;;;;;366.58;248.27;;;;;;;19.46;67.65;99967.84;334211;29;847;-73
2023/09/19 00:56:40;;;;;;;370.00;256.53;;;;;;;19.45;67.72;99967.94;334089;29;1245;-73
2023/09/19 00:56:50;;;;;;;370.98;253.10;;;;;;;19.46;67.36;99967.84;332769;29;993;-73
2023/09/19 00:57:01;;;;;;;372.60;260.20;;;;;;;19.43;67.67;99968.06;327560;29;1591;-73